Terminal Aerodrome Forecast
Issued by NWS Wilmington, OH

Home | Current Version | Previous Version | Text Only | Print | Product List | Glossary On
Versions: 1 2 3 4 5 6 7 8 9 10 11 12 13 14 15 16 17 18
000
FTUS41 KILN 261100
TAFDAY
TAF
KDAY 261121Z 2612/2712 19005KT P6SM BKN080
     FM261600 22012G18KT P6SM BKN040
     FM262000 23009KT P6SM VCSH BKN040 OVC200
     FM270200 23008KT P6SM VCTS BKN040CB
     FM270900 21006KT P6SM BKN100=

USA.gov is the U.S. government's official web portal to all federal, state and local government web resources and services.